createdAt,value
2019-02-28T00:00:30.486Z,1.20
2019-02-28T00:02:58.604Z,0.60
2019-02-28T00:05:24.987Z,0.68
2019-02-28T00:07:51.240Z,0.50
2019-02-28T00:10:17.478Z,0.40
2019-02-28T00:12:45.208Z,0.30
2019-02-28T00:15:12.061Z,0.30
2019-02-28T00:17:42.563Z,0.30
2019-02-28T00:20:08.120Z,0.30
2019-02-28T00:22:34.441Z,0.37
2019-02-28T00:25:01.138Z,0.20
2019-02-28T00:27:29.123Z,0.30
2019-02-28T00:29:55.811Z,0.30
2019-02-28T00:32:24.850Z,0.55
2019-02-28T00:34:50.536Z,0.50
2019-02-28T00:37:18.583Z,0.28
2019-02-28T00:42:11.657Z,0.20
2019-02-28T00:44:37.993Z,0.30
2019-02-28T00:47:04.377Z,0.30
2019-02-28T00:49:30.693Z,0.20
2019-02-28T00:51:56.931Z,0.15
2019-02-28T00:54:23.253Z,0.30
2019-02-28T00:56:52.526Z,0.23
2019-02-28T00:59:18.569Z,0.25
2019-02-28T01:01:46.042Z,0.20
2019-02-28T01:04:13.140Z,0.20
2019-02-28T01:06:41.797Z,0.20
2019-02-28T01:09:07.894Z,0.40
2019-02-28T01:11:35.221Z,0.30
2019-02-28T01:14:02.522Z,0.30
2019-02-28T01:16:28.866Z,0.30
2019-02-28T01:18:55.105Z,0.30
2019-02-28T01:21:24.014Z,0.30
2019-02-28T01:23:49.573Z,0.20
2019-02-28T01:26:15.809Z,0.60
2019-02-28T01:28:42.066Z,0.50
2019-02-28T01:31:11.602Z,0.30
2019-02-28T01:33:36.525Z,0.40
2019-02-28T01:36:03.072Z,0.33
2019-02-28T01:38:29.666Z,0.30
2019-02-28T01:40:56.007Z,0.35
2019-02-28T01:43:28.312Z,0.23
2019-02-28T01:45:53.359Z,0.20
2019-02-28T01:48:22.616Z,0.28
2019-02-28T01:53:18.743Z,0.20
2019-02-28T01:55:42.153Z,0.30
2019-02-28T01:58:08.408Z,0.30
2019-02-28T02:00:34.729Z,0.30
2019-02-28T02:03:00.955Z,0.23
2019-02-28T02:05:27.212Z,0.23
2019-02-28T02:07:54.558Z,0.40
2019-02-28T02:10:21.892Z,0.40
2019-02-28T02:12:49.141Z,0.40
2019-02-28T02:15:17.035Z,0.30
2019-02-28T02:17:44.254Z,0.17
2019-02-28T02:20:12.498Z,0.20
2019-02-28T02:22:40.630Z,0.30
2019-02-28T02:25:07.979Z,0.30
2019-02-28T02:27:34.321Z,0.23
2019-02-28T02:30:00.550Z,0.20
2019-02-28T02:32:26.881Z,0.20
2019-02-28T02:34:54.359Z,0.30
2019-02-28T02:37:21.001Z,0.30
2019-02-28T02:39:50.177Z,0.30
2019-02-28T02:42:15.615Z,0.20
2019-02-28T02:44:42.141Z,0.35
2019-02-28T02:47:08.502Z,0.20
2019-02-28T02:49:34.761Z,0.20
2019-02-28T02:52:01.083Z,0.40
2019-02-28T02:54:27.505Z,0.30
2019-02-28T02:56:53.858Z,0.30
2019-02-28T02:59:21.196Z,0.35
2019-02-28T03:01:47.532Z,0.30
2019-02-28T03:04:21.711Z,0.40
2019-02-28T03:06:45.879Z,0.40
2019-02-28T03:09:11.992Z,0.37
2019-02-28T03:11:39.309Z,0.25
2019-02-28T03:14:06.526Z,0.28
2019-02-28T03:16:34.630Z,0.20
2019-02-28T03:19:01.301Z,0.30
2019-02-28T03:21:27.725Z,0.30
2019-02-28T03:23:53.955Z,0.20
2019-02-28T03:26:20.226Z,0.33
2019-02-28T03:28:46.478Z,0.40
2019-02-28T03:31:15.381Z,0.30
2019-02-28T03:33:40.929Z,0.20
2019-02-28T03:36:07.241Z,0.20
2019-02-28T03:38:33.566Z,0.20
2019-02-28T03:40:59.963Z,0.30
2019-02-28T03:43:27.427Z,0.40
2019-02-28T03:45:54.122Z,0.62
2019-02-28T03:48:21.622Z,0.90
2019-02-28T03:50:49.206Z,0.78
2019-02-28T03:53:19.437Z,1.40
2019-02-28T03:55:43.641Z,1.05
2019-02-28T03:58:10.278Z,0.50
2019-02-28T04:00:36.595Z,0.95
2019-02-28T04:03:03.040Z,1.12
2019-02-28T04:05:29.269Z,0.50
2019-02-28T04:07:55.601Z,0.40
2019-02-28T04:10:22.590Z,0.60
2019-02-28T04:12:49.198Z,0.40
2019-02-28T04:15:16.907Z,0.45
2019-02-28T04:17:43.160Z,0.55
2019-02-28T04:20:09.593Z,0.60
2019-02-28T04:22:36.313Z,0.57
2019-02-28T04:25:04.145Z,0.53
2019-02-28T04:27:30.370Z,0.42
2019-02-28T04:29:57.815Z,0.55
2019-02-28T04:32:27.672Z,0.40
2019-02-28T04:34:52.784Z,0.57
2019-02-28T04:37:21.194Z,1.30
2019-02-28T15:42:36.162Z,0.30
2019-02-28T15:45:05.079Z,0.55
2019-02-28T15:47:31.409Z,0.82
2019-02-28T15:49:58.649Z,0.35
2019-02-28T15:52:25.977Z,0.30
2019-02-28T15:54:52.197Z,0.35
2019-02-28T15:57:18.466Z,0.30
2019-02-28T15:59:46.656Z,0.37
2019-02-28T16:02:13.021Z,0.20
2019-02-28T16:04:39.269Z,0.50
2019-02-28T16:07:05.530Z,0.40
2019-02-28T16:09:31.828Z,0.50
2019-02-28T16:11:58.263Z,0.50
2019-02-28T16:14:24.574Z,0.30
2019-02-28T16:16:50.800Z,0.40
2019-02-28T16:19:18.906Z,0.45
2019-02-28T16:24:11.552Z,0.75
2019-02-28T16:26:37.905Z,0.98
2019-02-28T16:29:04.228Z,1.12
2019-02-28T16:31:31.440Z,0.60
2019-02-28T16:34:04.880Z,0.90
2019-02-28T16:36:26.614Z,0.65
2019-02-28T16:38:52.933Z,0.70
2019-02-28T16:41:19.266Z,1.17
2019-02-28T16:43:45.491Z,1.70
2019-02-28T16:46:12.374Z,1.70
2019-02-28T16:48:39.970Z,1.70
2019-02-28T16:51:06.297Z,0.85
2019-02-28T16:53:32.623Z,1.35
2019-02-28T16:55:58.869Z,0.90
2019-02-28T16:58:25.101Z,0.70
2019-02-28T17:00:51.321Z,0.60
2019-02-28T17:03:18.560Z,0.55
2019-02-28T17:05:44.789Z,0.40
2019-02-28T17:08:11.409Z,0.42
2019-02-28T17:10:40.060Z,0.40
2019-02-28T17:13:24.469Z,0.47
2019-02-28T17:16:01.199Z,1.12
2019-02-28T17:18:37.264Z,0.80
2019-02-28T17:21:03.573Z,2.72
2019-02-28T17:23:29.793Z,9.05
2019-02-28T17:25:56.563Z,7.75
2019-02-28T17:28:40.860Z,2.77
2019-02-28T17:31:11.505Z,2.75
2019-02-28T17:33:37.358Z,1.30
2019-02-28T17:36:08.094Z,1.32
2019-02-28T17:38:33.095Z,1.72
2019-02-28T17:41:01.894Z,1.17
2019-02-28T17:43:29.225Z,2.47
2019-02-28T17:45:55.452Z,4.58
2019-02-28T17:48:34.600Z,2.80
2019-02-28T17:51:07.349Z,1.80
2019-02-28T17:53:37.617Z,3.55
2019-02-28T17:56:40.849Z,1.00
2019-02-28T17:59:25.382Z,2.00
2019-02-28T18:02:24.713Z,1.50
2019-02-28T18:05:11.533Z,1.20
2019-02-28T18:07:53.909Z,1.17
2019-02-28T18:10:45.857Z,0.70
2019-02-28T18:13:16.145Z,0.70
2019-02-28T18:15:50.804Z,1.07
2019-02-28T18:18:29.905Z,1.20
2019-02-28T18:21:08.755Z,1.10
2019-02-28T18:24:00.177Z,1.12
2019-02-28T18:26:44.101Z,1.60
2019-02-28T18:29:17.340Z,1.50
2019-02-28T18:31:43.650Z,2.98
2019-02-28T18:34:09.981Z,1.60
2019-02-28T18:36:36.287Z,1.20
2019-02-28T18:39:08.026Z,3.87
2019-02-28T18:41:34.107Z,1.37
2019-02-28T18:44:03.663Z,2.58
2019-02-28T18:46:29.457Z,2.65
2019-02-28T18:48:56.678Z,3.10
2019-02-28T18:51:22.899Z,1.30
2019-02-28T18:53:49.423Z,0.70
2019-02-28T18:56:15.758Z,0.85
2019-02-28T18:58:42.084Z,0.80
2019-02-28T19:01:08.507Z,0.78
2019-02-28T19:03:34.837Z,0.65
2019-02-28T19:06:01.322Z,0.93
2019-02-28T19:08:27.745Z,0.82
2019-02-28T19:10:55.038Z,1.07
2019-02-28T19:13:21.506Z,1.00
2019-02-28T19:15:47.829Z,1.30
2019-02-28T19:18:14.072Z,1.15
2019-02-28T19:20:40.381Z,1.07
2019-02-28T19:23:06.601Z,0.85
2019-02-28T19:25:33.045Z,1.17
2019-02-28T19:27:59.362Z,0.80
2019-02-28T19:30:26.571Z,0.88
2019-02-28T19:32:52.802Z,1.00
2019-02-28T19:35:19.122Z,1.02
2019-02-28T19:37:45.430Z,1.20
2019-02-28T19:40:12.465Z,1.47
2019-02-28T19:42:38.870Z,1.40
2019-02-28T19:45:08.896Z,1.77
2019-02-28T19:47:35.229Z,1.40
2019-02-28T19:50:01.439Z,1.50
2019-02-28T19:52:27.842Z,1.35
2019-02-28T19:54:54.266Z,1.10
2019-02-28T19:57:20.469Z,1.50
2019-02-28T19:59:46.698Z,0.78
2019-02-28T20:02:13.017Z,1.30
2019-02-28T20:04:39.241Z,1.20
2019-02-28T20:07:05.557Z,1.82
2019-02-28T20:09:31.971Z,2.10
2019-02-28T20:11:58.185Z,2.58
2019-02-28T20:14:24.397Z,1.77
2019-02-28T20:16:50.620Z,1.90
2019-02-28T20:19:16.937Z,1.40
2019-02-28T20:21:43.147Z,1.32
2019-02-28T20:24:09.373Z,1.10
2019-02-28T20:26:35.697Z,0.72
2019-02-28T20:29:01.905Z,0.85
2019-02-28T20:31:28.362Z,0.78
2019-02-28T20:33:55.668Z,0.85
2019-02-28T20:36:22.093Z,0.75
2019-02-28T20:38:48.416Z,0.70
2019-02-28T20:41:14.730Z,0.88
2019-02-28T20:43:41.039Z,1.47
2019-02-28T20:46:07.280Z,1.50
2019-02-28T20:48:33.597Z,1.65
2019-02-28T20:50:59.812Z,1.92
2019-02-28T20:53:26.046Z,1.60
2019-02-28T20:55:52.478Z,1.75
2019-02-28T20:58:18.885Z,1.72
2019-02-28T21:00:45.293Z,1.57
2019-02-28T21:03:11.506Z,1.47
2019-02-28T21:05:37.819Z,1.40
2019-02-28T21:08:04.164Z,1.30
2019-02-28T21:10:30.574Z,0.90
2019-02-28T21:12:56.987Z,1.10
2019-02-28T21:15:24.870Z,0.93
2019-02-28T21:20:18.643Z,1.10
2019-02-28T21:22:44.965Z,1.00
2019-02-28T21:25:15.677Z,1.17
2019-02-28T21:27:42.085Z,1.15
2019-02-28T21:30:18.346Z,1.30
2019-02-28T21:32:44.747Z,1.37
2019-02-28T21:35:11.178Z,1.37
2019-02-28T21:37:37.699Z,1.57
2019-02-28T21:40:08.503Z,1.32
2019-02-28T21:42:35.723Z,1.72
2019-02-28T21:45:04.905Z,1.80
2019-02-28T21:47:32.022Z,1.80
2019-02-28T21:49:58.231Z,1.98
2019-02-28T21:52:24.453Z,1.30
2019-02-28T21:54:50.711Z,1.60
2019-02-28T21:57:17.217Z,1.47
2019-02-28T21:59:43.452Z,1.50
2019-02-28T22:02:09.660Z,1.00
2019-02-28T22:04:35.882Z,0.93
2019-02-28T22:07:02.304Z,0.88
2019-02-28T22:09:29.633Z,1.07
2019-02-28T22:11:55.857Z,1.50
2019-02-28T22:14:22.077Z,1.30
2019-02-28T22:16:48.389Z,1.00
2019-02-28T22:19:14.606Z,1.07
2019-02-28T22:21:40.845Z,1.10
2019-02-28T22:24:07.073Z,1.17
2019-02-28T22:26:34.144Z,1.00
2019-02-28T22:29:00.514Z,0.93
2019-02-28T22:31:28.713Z,1.30
2019-02-28T22:33:56.829Z,0.80
2019-02-28T22:36:27.909Z,1.00
2019-02-28T22:38:54.125Z,0.93
2019-02-28T22:41:20.361Z,0.80
2019-02-28T22:43:46.738Z,0.80
2019-02-28T22:46:12.953Z,1.15
2019-02-28T22:48:39.197Z,0.97
2019-02-28T22:51:05.561Z,0.80
2019-02-28T22:53:31.785Z,0.70
2019-02-28T22:55:58.005Z,0.40
2019-02-28T22:58:24.255Z,0.65
2019-02-28T23:01:01.263Z,0.40
2019-02-28T23:03:31.515Z,0.80
2019-02-28T23:05:57.979Z,0.60
2019-02-28T23:08:24.315Z,0.70
2019-02-28T23:10:50.541Z,0.67
2019-02-28T23:13:16.761Z,0.62
2019-02-28T23:15:42.994Z,0.68
2019-02-28T23:18:09.345Z,0.47
2019-02-28T23:20:35.573Z,0.50
2019-02-28T23:23:01.789Z,0.60
2019-02-28T23:25:28.031Z,0.50
2019-02-28T23:28:09.107Z,0.45
2019-02-28T23:30:39.157Z,0.40
2019-02-28T23:33:05.642Z,0.40
2019-02-28T23:35:33.326Z,0.65
2019-02-28T23:37:59.645Z,0.47
2019-02-28T23:40:25.855Z,0.50
2019-02-28T23:42:52.079Z,0.70
2019-02-28T23:45:18.442Z,0.60
2019-02-28T23:47:44.749Z,0.55
2019-02-28T23:50:11.076Z,0.50
2019-02-28T23:52:37.325Z,0.45
2019-02-28T23:55:06.352Z,0.77
2019-02-28T23:57:32.562Z,0.70
2019-02-28T23:59:58.847Z,0.50
